createdAt,value
2019-05-10T00:02:09.835Z,97127.89
2019-05-10T00:05:00.875Z,97132.78
2019-05-10T00:07:52.082Z,97123.03
2019-05-10T00:10:24.732Z,97125.95
2019-05-10T00:13:09.912Z,97120.58
2019-05-10T00:15:43.611Z,97119.23
2019-05-10T00:18:17.337Z,97116.53
2019-05-10T00:20:51.065Z,97118.70
2019-05-10T00:23:24.644Z,97115.72
2019-05-10T00:25:58.413Z,97119.23
2019-05-10T00:28:32.125Z,97117.88
2019-05-10T00:31:05.728Z,97123.03
2019-05-10T00:33:39.476Z,97128.33
2019-05-10T00:36:13.106Z,97128.03
2019-05-10T00:38:46.742Z,97130.43
2019-05-10T00:41:20.474Z,97130.43
2019-05-10T00:43:54.190Z,97136.63
2019-05-10T00:46:27.811Z,97131.63
2019-05-10T00:49:01.918Z,97128.65
2019-05-10T00:51:35.638Z,97120.25
2019-05-10T00:54:09.408Z,97116.21
2019-05-10T00:56:43.144Z,97123.27
2019-05-10T00:59:16.797Z,97121.09
2019-05-10T01:01:50.524Z,97117.36
2019-05-10T01:04:24.264Z,97121.59
2019-05-10T01:06:58.068Z,97114.87
2019-05-10T01:09:32.082Z,97117.56
2019-05-10T01:12:05.678Z,97119.43
2019-05-10T01:14:39.360Z,97130.72
2019-05-10T01:17:13.006Z,97129.08
2019-05-10T01:19:46.741Z,97130.20
2019-05-10T01:22:20.497Z,97121.30
2019-05-10T01:24:54.153Z,97122.65
2019-05-10T01:27:27.887Z,97119.14
2019-05-10T01:30:01.941Z,97122.13
2019-05-10T01:32:35.807Z,97122.13
2019-05-10T01:35:09.702Z,97119.14
2019-05-10T01:37:43.432Z,97123.99
2019-05-10T01:40:17.189Z,97123.99
2019-05-10T01:42:50.910Z,97123.17
2019-05-10T01:45:24.869Z,97122.65
2019-05-10T01:47:58.786Z,97125.86
2019-05-10T01:50:35.684Z,97126.39
2019-05-10T01:53:08.452Z,97123.99
2019-05-10T01:55:51.455Z,97124.52
2019-05-10T01:58:18.043Z,97129.38
2019-05-10T02:00:51.752Z,97134.23
2019-05-10T02:03:25.557Z,97130.43
2019-05-10T02:05:59.256Z,97130.43
2019-05-10T02:08:33.058Z,97132.27
2019-05-10T02:11:08.502Z,97134.76
2019-05-10T02:13:42.435Z,97127.73
2019-05-10T02:16:16.125Z,97137.65
2019-05-10T02:18:49.898Z,97126.06
2019-05-10T02:21:23.625Z,97130.43
2019-05-10T02:23:57.370Z,97134.96
2019-05-10T02:26:31.149Z,97137.16
2019-05-10T02:29:04.897Z,97130.10
2019-05-10T02:31:38.623Z,97141.19
2019-05-10T02:34:14.887Z,97141.69
2019-05-10T02:36:48.644Z,97138.17
2019-05-10T02:39:22.561Z,97140.87
2019-05-10T02:41:56.448Z,97143.36
2019-05-10T02:44:30.139Z,97143.56
2019-05-10T02:47:03.905Z,97146.25
2019-05-10T02:49:37.563Z,97145.95
2019-05-10T02:52:11.692Z,97147.59
2019-05-10T02:54:45.822Z,97147.92
2019-05-10T02:57:19.747Z,97142.21
2019-05-10T02:59:53.493Z,97144.61
2019-05-10T03:02:27.467Z,97147.30
2019-05-10T03:05:01.761Z,97146.78
2019-05-10T03:07:38.737Z,97148.65
2019-05-10T03:10:12.824Z,97147.59
2019-05-10T03:12:46.597Z,97145.95
2019-05-10T03:15:20.320Z,97145.43
2019-05-10T03:17:54.076Z,97144.28
2019-05-10T03:20:27.764Z,97144.08
2019-05-10T03:23:01.480Z,97145.14
2019-05-10T03:25:35.488Z,97147.30
2019-05-10T03:28:09.253Z,97155.05
2019-05-10T03:30:42.932Z,97151.86
2019-05-10T03:33:16.663Z,97161.78
2019-05-10T03:35:50.374Z,97160.76
2019-05-10T03:38:24.555Z,97167.48
2019-05-10T03:40:58.948Z,97163.13
2019-05-10T03:43:32.926Z,97167.16
2019-05-10T03:46:06.564Z,97170.70
2019-05-10T03:48:40.374Z,97172.87
2019-05-10T03:51:14.081Z,97168.83
2019-05-10T03:53:47.745Z,97173.17
2019-05-10T03:56:21.646Z,97174.51
2019-05-10T03:58:55.334Z,97179.08
2019-05-10T04:01:29.067Z,97182.29
2019-05-10T04:04:02.927Z,97181.23
2019-05-10T04:06:36.808Z,97183.93
2019-05-10T04:09:10.403Z,97186.42
2019-05-10T04:11:44.126Z,97190.98
2019-05-10T04:14:17.972Z,97192.10
2019-05-10T04:16:52.072Z,97193.16
2019-05-10T04:19:25.824Z,97199.06
2019-05-10T04:21:59.768Z,97199.88
2019-05-10T04:24:36.179Z,97196.66
2019-05-10T04:27:08.906Z,97195.02
2019-05-10T04:29:42.924Z,97201.00
2019-05-10T04:32:16.841Z,97205.36
2019-05-10T04:34:50.497Z,97201.00
2019-05-10T04:37:24.328Z,97207.73
2019-05-10T04:39:58.051Z,97203.48
2019-05-10T04:42:32.975Z,97202.67
2019-05-10T04:45:06.834Z,97202.97
2019-05-10T04:47:40.848Z,97201.62
2019-05-10T04:50:14.634Z,97207.53
2019-05-10T04:52:48.450Z,97209.50
2019-05-10T04:55:22.169Z,97207.30
2019-05-10T04:57:56.084Z,97210.31
2019-05-10T05:00:29.821Z,97215.17
2019-05-10T05:03:03.736Z,97211.66
2019-05-10T05:05:37.544Z,97211.95
2019-05-10T05:08:11.266Z,97211.95
2019-05-10T05:10:44.987Z,97213.63
2019-05-10T05:13:20.579Z,97219.02
2019-05-10T05:15:54.314Z,97220.66
2019-05-10T05:18:28.030Z,97220.66
2019-05-10T05:21:02.203Z,97224.98
2019-05-10T05:23:36.038Z,97224.98
2019-05-10T05:26:11.440Z,97225.84
2019-05-10T05:28:45.090Z,97227.19
2019-05-10T05:31:18.927Z,97227.91
2019-05-10T05:33:52.704Z,97231.42
2019-05-10T05:36:26.438Z,97236.70
2019-05-10T05:39:00.149Z,97241.04
2019-05-10T05:41:47.592Z,97241.04
2019-05-10T05:44:09.677Z,97246.20
2019-05-10T05:46:44.607Z,97252.43
2019-05-10T05:49:18.350Z,97243.73
2019-05-10T05:51:52.265Z,97242.68
2019-05-10T05:54:25.885Z,97253.98
2019-05-10T05:56:59.646Z,97254.17
2019-05-10T05:59:33.403Z,97260.73
2019-05-10T06:02:09.515Z,97263.42
2019-05-10T06:04:46.127Z,97267.23
2019-05-10T06:07:18.935Z,97261.03
2019-05-10T06:09:53.125Z,97258.63
2019-05-10T06:12:26.873Z,97256.99
2019-05-10T06:15:00.717Z,97261.42
2019-05-10T06:17:34.659Z,97267.95
2019-05-10T06:20:08.817Z,97273.34
2019-05-10T06:22:44.011Z,97283.29
2019-05-10T06:25:17.953Z,97281.42
2019-05-10T06:27:52.124Z,97275.21
2019-05-10T06:30:25.805Z,97278.73
2019-05-10T06:33:03.352Z,97275.61
2019-05-10T06:35:34.954Z,97276.66
2019-05-10T06:38:08.659Z,97270.94
2019-05-10T06:40:47.369Z,97273.20
2019-05-10T06:43:18.298Z,97278.30
2019-05-10T06:45:53.892Z,97284.30
2019-05-10T06:48:33.157Z,97288.34
2019-05-10T06:51:09.326Z,97290.22
2019-05-10T06:53:41.606Z,97287.00
2019-05-10T06:56:15.625Z,97294.25
2019-05-10T06:58:49.366Z,97282.95
2019-05-10T07:01:23.109Z,97292.38
2019-05-10T07:03:56.806Z,97286.77
2019-05-10T07:06:31.179Z,97289.98
2019-05-10T07:09:06.705Z,97288.11
2019-05-10T07:11:40.341Z,97290.08
2019-05-10T07:14:15.974Z,97290.38
2019-05-10T07:16:49.853Z,97292.88
2019-05-10T07:19:23.666Z,97291.95
2019-05-10T07:21:57.453Z,97295.77
2019-05-10T07:24:31.663Z,97294.22
2019-05-10T07:27:05.993Z,97303.94
2019-05-10T07:29:45.879Z,97301.67
2019-05-10T07:32:16.432Z,97299.80
2019-05-10T07:34:58.609Z,97302.30
2019-05-10T07:37:26.542Z,97301.77
2019-05-10T07:40:03.351Z,97308.51
2019-05-10T07:42:39.758Z,97303.13
2019-05-10T07:45:12.312Z,97302.30
2019-05-10T07:47:45.932Z,97306.64
2019-05-10T07:50:19.799Z,97311.00
2019-05-10T07:52:53.610Z,97310.28
2019-05-10T07:55:29.899Z,97311.63
2019-05-10T07:58:05.024Z,97308.70
2019-05-10T08:00:44.640Z,97320.30
2019-05-10T08:03:18.818Z,97316.78
2019-05-10T08:05:58.037Z,97312.73
2019-05-10T08:08:29.610Z,97311.92
2019-05-10T08:11:02.978Z,97318.13
2019-05-10T08:13:39.175Z,97324.95
2019-05-10T08:16:19.716Z,97330.05
2019-05-10T08:18:49.744Z,97327.36
2019-05-10T08:21:26.282Z,97329.23
2019-05-10T08:23:59.043Z,97322.98
2019-05-10T08:26:34.192Z,97328.91
2019-05-10T08:29:12.754Z,97325.69
2019-05-10T08:31:50.567Z,97330.58
2019-05-10T08:34:19.856Z,97335.11
2019-05-10T08:36:53.565Z,97337.80
2019-05-10T08:39:34.847Z,97337.80
2019-05-10T08:42:13.658Z,97341.02
2019-05-10T08:44:42.602Z,97340.50
2019-05-10T08:47:23.928Z,97338.33
2019-05-10T08:50:06.718Z,97341.84
2019-05-10T08:52:30.873Z,97339.67
2019-05-10T08:55:02.949Z,97341.84
2019-05-10T08:57:43.314Z,97336.45
2019-05-10T09:00:12.979Z,97343.52
2019-05-10T09:02:47.220Z,97346.22
2019-05-10T09:05:28.637Z,97355.64
2019-05-10T09:07:56.290Z,97350.78
2019-05-10T09:10:32.304Z,97349.43
2019-05-10T09:13:05.715Z,97350.78
2019-05-10T09:15:43.316Z,97356.16
2019-05-10T09:18:14.967Z,97361.84
2019-05-10T09:20:48.871Z,97357.70
2019-05-10T09:23:23.177Z,97367.96
2019-05-10T09:26:03.720Z,97360.41
2019-05-10T09:28:32.310Z,97362.80
2019-05-10T09:31:18.890Z,97358.76
2019-05-10T09:33:49.322Z,97370.03
2019-05-10T09:36:23.155Z,97363.00
2019-05-10T09:38:55.585Z,97370.26
2019-05-10T09:41:33.821Z,97379.45
2019-05-10T09:44:04.806Z,97382.48
2019-05-10T09:46:38.624Z,97379.98
2019-05-10T09:49:17.795Z,97383.72
2019-05-10T09:51:48.192Z,97380.31
2019-05-10T09:54:23.307Z,97386.52
2019-05-10T09:56:57.758Z,97383.30
2019-05-10T09:59:31.969Z,97391.67
2019-05-10T10:02:14.525Z,97393.35
2019-05-10T10:04:41.313Z,97399.56
2019-05-10T10:07:18.745Z,97398.73
2019-05-10T10:09:50.667Z,97404.13
2019-05-10T10:12:24.376Z,97405.24
2019-05-10T10:14:58.118Z,97412.50
2019-05-10T10:17:40.277Z,97412.50
2019-05-10T10:20:08.646Z,97407.94
2019-05-10T10:22:43.468Z,97411.45
2019-05-10T10:25:17.794Z,97410.11
2019-05-10T10:27:51.915Z,97418.19
2019-05-10T10:30:27.572Z,97417.17
2019-05-10T10:33:05.908Z,97417.17
2019-05-10T10:35:38.396Z,97422.55
2019-05-10T10:38:14.952Z,97420.16
2019-05-10T10:40:48.718Z,97414.14
2019-05-10T10:43:22.824Z,97423.91
2019-05-10T10:45:57.472Z,97418.61
2019-05-10T10:48:31.397Z,97426.39
2019-05-10T10:51:08.081Z,97423.70
2019-05-10T10:53:41.983Z,97425.45
2019-05-10T10:56:17.730Z,97424.43
2019-05-10T10:58:54.400Z,97429.59
2019-05-10T11:01:45.636Z,97436.02
2019-05-10T11:04:08.215Z,97435.62
2019-05-10T11:06:42.946Z,97440.91
2019-05-10T11:09:16.590Z,97440.39
2019-05-10T11:11:51.549Z,97443.61
2019-05-10T11:14:25.409Z,97441.93
2019-05-10T11:17:01.161Z,97441.41
2019-05-10T11:19:34.714Z,97447.94
2019-05-10T11:22:09.777Z,97446.59
2019-05-10T11:24:44.173Z,97445.55
2019-05-10T11:27:18.112Z,97446.59
2019-05-10T11:29:55.009Z,97443.70
2019-05-10T11:32:27.225Z,97448.05
2019-05-10T11:35:01.089Z,97447.22
2019-05-10T11:37:36.325Z,97449.59
2019-05-10T11:40:11.257Z,97448.23
2019-05-10T11:42:47.387Z,97451.56
2019-05-10T11:45:20.989Z,97446.47
2019-05-10T11:47:59.243Z,97444.01
2019-05-10T11:50:34.560Z,97441.31
2019-05-10T11:53:12.388Z,97444.63
2019-05-10T11:55:43.637Z,97435.20
2019-05-10T11:58:23.467Z,97439.02
2019-05-10T12:00:59.460Z,97439.02
2019-05-10T12:03:31.818Z,97438.19
2019-05-10T12:06:08.978Z,97433.63
2019-05-10T12:08:42.391Z,97430.94
2019-05-10T12:11:29.359Z,97443.06
2019-05-10T12:13:56.875Z,97447.63
2019-05-10T12:16:33.082Z,97451.86
2019-05-10T12:19:15.083Z,97465.13
2019-05-10T12:21:39.923Z,97467.30
2019-05-10T12:24:31.195Z,97473.22
2019-05-10T12:29:24.767Z,97484.28
2019-05-10T12:31:58.501Z,97479.00
2019-05-10T12:34:32.222Z,97480.05
2019-05-10T12:37:08.376Z,97481.40
2019-05-10T12:39:42.558Z,97482.75
2019-05-10T12:42:16.244Z,97492.47
2019-05-10T12:44:51.964Z,97490.30
2019-05-10T12:47:25.649Z,97491.66
2019-05-10T12:50:02.120Z,97496.52
2019-05-10T12:52:36.678Z,97494.34
2019-05-10T12:55:10.391Z,97503.48
2019-05-10T12:57:44.342Z,97503.88
2019-05-10T13:00:18.114Z,97519.22
2019-05-10T13:02:53.479Z,97525.66
2019-05-10T13:05:32.316Z,97528.35
2019-05-10T13:08:03.366Z,97534.56
2019-05-10T13:10:43.342Z,97527.50
2019-05-10T13:13:12.561Z,97531.05
2019-05-10T13:15:46.399Z,97537.26
2019-05-10T13:18:23.018Z,97543.66
2019-05-10T13:20:55.574Z,97551.25
2019-05-10T13:23:29.379Z,97559.53
2019-05-10T13:26:04.693Z,97550.62
2019-05-10T13:28:38.300Z,97555.29
2019-05-10T13:31:14.900Z,97546.87
2019-05-10T13:33:47.457Z,97542.12
2019-05-10T13:36:21.715Z,97541.59
2019-05-10T13:38:55.461Z,97553.19
2019-05-10T13:41:29.109Z,97559.11
2019-05-10T13:44:04.911Z,97577.25
2019-05-10T13:46:38.486Z,97582.64
2019-05-10T13:49:12.314Z,97587.73
2019-05-10T13:51:46.275Z,97596.63
2019-05-10T13:54:20.131Z,97595.28
2019-05-10T13:56:55.067Z,97584.07
2019-05-10T13:59:29.030Z,97584.51
2019-05-10T14:02:03.066Z,97578.59
2019-05-10T14:04:38.573Z,97582.34
2019-05-10T14:07:12.626Z,97596.30
2019-05-10T14:09:46.506Z,97610.63
2019-05-10T14:12:23.204Z,97614.97
2019-05-10T14:15:02.540Z,97606.88
2019-05-10T14:17:32.133Z,97597.35
2019-05-10T14:20:07.147Z,97598.17
2019-05-10T14:22:41.039Z,97602.55
2019-05-10T14:25:14.766Z,97610.30
2019-05-10T14:27:48.677Z,97617.03
2019-05-10T14:30:22.392Z,97619.02
2019-05-10T14:32:56.161Z,97624.92
2019-05-10T14:35:29.912Z,97625.22
2019-05-10T14:38:08.480Z,97630.31
2019-05-10T14:40:39.396Z,97629.68
2019-05-10T14:43:14.929Z,97639.63
2019-05-10T14:45:48.831Z,97643.98
2019-05-10T14:48:28.527Z,97648.02
2019-05-10T14:51:03.109Z,97640.98
2019-05-10T14:53:33.736Z,97642.33
2019-05-10T14:56:08.140Z,97637.46
2019-05-10T14:58:42.880Z,97631.73
2019-05-10T15:01:18.197Z,97636.61
2019-05-10T15:03:52.015Z,97634.44
2019-05-10T15:06:30.755Z,97636.41
2019-05-10T15:09:01.174Z,97643.15
2019-05-10T15:11:34.910Z,97639.93
2019-05-10T15:14:09.279Z,97635.06
2019-05-10T15:16:42.979Z,97636.94
2019-05-10T15:19:16.746Z,97635.56
2019-05-10T15:21:50.935Z,97637.66
2019-05-10T15:24:24.730Z,97631.73
2019-05-10T15:26:58.446Z,97630.92
2019-05-10T15:29:32.692Z,97642.00
2019-05-10T15:32:06.435Z,97644.20
2019-05-10T15:34:42.014Z,97655.27
2019-05-10T15:37:17.834Z,97671.73
2019-05-10T15:39:52.264Z,97677.98
2019-05-10T15:42:30.537Z,97679.33
2019-05-10T15:45:11.795Z,97671.25
2019-05-10T15:47:50.741Z,97676.83
2019-05-10T15:50:16.388Z,97671.55
2019-05-10T15:52:51.060Z,97681.09
2019-05-10T15:55:27.253Z,97678.28
2019-05-10T15:58:00.419Z,97679.63
2019-05-10T16:00:39.102Z,97669.05
2019-05-10T16:03:09.734Z,97665.34
2019-05-10T16:05:44.222Z,97664.81
2019-05-10T16:08:18.181Z,97660.25
2019-05-10T16:10:52.374Z,97661.48
2019-05-10T16:13:26.286Z,97665.45
2019-05-10T16:16:00.100Z,97659.84
2019-05-10T16:18:39.755Z,97668.55
2019-05-10T16:21:09.702Z,97663.16
2019-05-10T16:23:46.768Z,97675.09
2019-05-10T16:26:23.015Z,97668.74
2019-05-10T16:29:01.840Z,97668.25
2019-05-10T16:31:31.439Z,97667.09
2019-05-10T16:34:05.100Z,97668.63
2019-05-10T16:36:38.930Z,97678.92
2019-05-10T16:39:12.707Z,97689.89
2019-05-10T16:41:46.498Z,97689.25
2019-05-10T16:44:21.005Z,97685.73
2019-05-10T16:46:54.952Z,97688.42
2019-05-10T16:49:28.902Z,97688.65
2019-05-10T16:52:04.976Z,97686.45
2019-05-10T16:54:38.688Z,97687.80
2019-05-10T16:57:12.575Z,97690.19
2019-05-10T16:59:46.347Z,97693.92
2019-05-10T17:02:20.119Z,97697.63
2019-05-10T17:04:54.455Z,97704.89
2019-05-10T17:07:28.070Z,97706.23
2019-05-10T17:10:02.045Z,97698.27
2019-05-10T17:12:35.775Z,97704.07
2019-05-10T17:15:09.443Z,97709.91
2019-05-10T17:17:44.971Z,97707.21
2019-05-10T17:20:20.537Z,97716.31
2019-05-10T17:22:54.217Z,97713.09
2019-05-10T17:25:27.903Z,97720.98
2019-05-10T17:28:01.706Z,97731.77
2019-05-10T17:30:35.532Z,97727.91
2019-05-10T17:33:10.871Z,97727.91
2019-05-10T17:35:44.663Z,97730.41
2019-05-10T17:38:18.390Z,97734.98
2019-05-10T17:40:52.278Z,97733.41
2019-05-10T17:43:25.952Z,97730.72
2019-05-10T17:46:01.752Z,97729.70
2019-05-10T17:48:35.570Z,97734.05
2019-05-10T17:51:09.417Z,97737.90
2019-05-10T17:53:43.170Z,97737.07
2019-05-10T17:56:16.970Z,97730.53
2019-05-10T17:58:50.761Z,97737.56
2019-05-10T18:01:24.470Z,97739.13
2019-05-10T18:03:58.404Z,97737.90
2019-05-10T18:06:32.533Z,97745.16
2019-05-10T18:09:07.693Z,97754.06
2019-05-10T18:11:42.976Z,97741.94
2019-05-10T18:14:19.802Z,97733.03
2019-05-10T18:16:53.626Z,97739.77
2019-05-10T18:19:27.381Z,97753.24
2019-05-10T18:22:05.802Z,97758.63
2019-05-10T18:24:41.470Z,97757.77
2019-05-10T18:27:12.272Z,97750.73
2019-05-10T18:29:46.099Z,97754.78
2019-05-10T18:32:19.779Z,97753.13
2019-05-10T18:34:53.527Z,97750.92
2019-05-10T18:37:27.371Z,97761.41
2019-05-10T18:40:01.124Z,97764.40
2019-05-10T18:42:36.040Z,97769.48
2019-05-10T18:45:10.083Z,97774.87
2019-05-10T18:47:43.729Z,97772.18
2019-05-10T18:50:17.778Z,97790.22
2019-05-10T18:52:52.372Z,97792.91
2019-05-10T18:55:26.131Z,97791.23
2019-05-10T18:57:59.888Z,97786.70
2019-05-10T19:00:33.696Z,97797.78
2019-05-10T19:03:07.378Z,97794.97
2019-05-10T19:05:41.843Z,97795.27
2019-05-10T19:08:15.447Z,97794.45
2019-05-10T19:10:49.103Z,97800.58
2019-05-10T19:13:23.326Z,97800.36
2019-05-10T19:15:58.628Z,97801.41
2019-05-10T19:18:34.174Z,97804.63
2019-05-10T19:21:08.992Z,97801.92
2019-05-10T19:23:42.937Z,97810.83
2019-05-10T19:26:17.751Z,97814.88
2019-05-10T19:28:51.510Z,97817.23
2019-05-10T19:31:25.243Z,97827.52
2019-05-10T19:33:59.230Z,97824.83
2019-05-10T19:36:33.149Z,97830.70
2019-05-10T19:39:08.040Z,97828.53
2019-05-10T19:41:41.778Z,97833.41
2019-05-10T19:44:15.565Z,97833.92
2019-05-10T19:46:49.162Z,97831.23
2019-05-10T19:49:22.995Z,97827.70
2019-05-10T19:51:56.853Z,97826.36
2019-05-10T19:54:30.624Z,97829.58
2019-05-10T19:57:15.617Z,97833.62
2019-05-10T19:59:43.977Z,97837.66
2019-05-10T20:02:15.228Z,97830.59
2019-05-10T20:04:49.077Z,97839.53
2019-05-10T20:07:22.965Z,97837.66
2019-05-10T20:09:57.014Z,97831.94
2019-05-10T20:12:30.795Z,97841.37
2019-05-10T20:15:04.834Z,97841.06
2019-05-10T20:17:39.028Z,97847.61
2019-05-10T20:20:12.892Z,97842.11
2019-05-10T20:22:46.870Z,97841.37
2019-05-10T20:25:20.653Z,97849.97
2019-05-10T20:27:54.461Z,97849.14
2019-05-10T20:30:28.418Z,97846.45
2019-05-10T20:33:02.713Z,97849.67
2019-05-10T20:35:36.455Z,97849.14
2019-05-10T20:38:10.127Z,97848.84
2019-05-10T20:40:43.809Z,97846.45
2019-05-10T20:43:17.577Z,97855.88
2019-05-10T20:45:51.336Z,97853.70
2019-05-10T20:48:26.000Z,97853.70
2019-05-10T20:50:59.695Z,97856.41
2019-05-10T20:53:33.376Z,97858.27
2019-05-10T20:56:08.134Z,97859.62
2019-05-10T20:58:42.179Z,97863.66
2019-05-10T21:01:15.786Z,97861.45
2019-05-10T21:03:49.660Z,97864.15
2019-05-10T21:06:23.790Z,97863.33
2019-05-10T21:08:57.691Z,97868.71
2019-05-10T21:11:31.666Z,97872.45
2019-05-10T21:14:05.413Z,97867.89
2019-05-10T21:16:39.239Z,97869.23
2019-05-10T21:19:13.043Z,97871.10
2019-05-10T21:21:46.796Z,97873.80
2019-05-10T21:24:20.690Z,97867.58
2019-05-10T21:26:54.324Z,97871.92
2019-05-10T21:29:28.080Z,97877.62
2019-05-10T21:32:02.364Z,97870.58
2019-05-10T21:34:36.208Z,97877.84
2019-05-10T21:37:09.939Z,97877.84
2019-05-10T21:39:43.571Z,97877.84
2019-05-10T21:42:17.315Z,97884.69
2019-05-10T21:44:51.167Z,97879.83
2019-05-10T21:47:24.954Z,97878.48
2019-05-10T21:49:58.877Z,97886.75
2019-05-10T21:52:32.902Z,97882.70
2019-05-10T21:55:06.884Z,97885.92
2019-05-10T21:57:40.587Z,97880.84
2019-05-10T22:00:14.981Z,97887.27
2019-05-10T22:02:49.053Z,97881.87
2019-05-10T22:05:22.938Z,97889.25
2019-05-10T22:07:56.701Z,97890.48
2019-05-10T22:10:30.431Z,97893.66
2019-05-10T22:13:04.267Z,97895.53
2019-05-10T22:15:38.186Z,97895.02
2019-05-10T22:18:12.292Z,97894.30
2019-05-10T22:20:46.109Z,97893.08
2019-05-10T22:23:19.841Z,97894.77
2019-05-10T22:25:53.586Z,97890.91
2019-05-10T22:28:29.247Z,97889.56
2019-05-10T22:31:02.947Z,97889.25
2019-05-10T22:33:36.765Z,97883.01
2019-05-10T22:36:10.395Z,97886.93
2019-05-10T22:38:44.091Z,97884.58
2019-05-10T22:41:17.957Z,97880.84
2019-05-10T22:43:51.695Z,97880.84
2019-05-10T22:46:25.411Z,97879.83
2019-05-10T22:48:59.296Z,97878.66
2019-05-10T22:51:32.926Z,97878.14
2019-05-10T22:54:06.577Z,97877.50
2019-05-10T22:56:40.274Z,97883.23
2019-05-10T22:59:14.015Z,97881.66
2019-05-10T23:01:47.765Z,97879.48
2019-05-10T23:04:22.723Z,97879.19
2019-05-10T23:06:56.451Z,97882.70
2019-05-10T23:09:30.244Z,97884.58
2019-05-10T23:12:04.070Z,97888.61
2019-05-10T23:14:38.053Z,97886.93
2019-05-10T23:17:11.787Z,97891.30
2019-05-10T23:19:45.869Z,97889.63
2019-05-10T23:22:21.424Z,97883.75
2019-05-10T23:24:55.160Z,97895.02
2019-05-10T23:27:30.758Z,97887.45
2019-05-10T23:30:04.900Z,97890.97
2019-05-10T23:32:38.792Z,97894.19
2019-05-10T23:35:12.895Z,97889.63
2019-05-10T23:37:48.465Z,97886.62
2019-05-10T23:40:22.902Z,97887.97
2019-05-10T23:42:56.731Z,97893.36
2019-05-10T23:45:30.511Z,97892.02
2019-05-10T23:48:04.252Z,97894.70
2019-05-10T23:50:38.085Z,97892.31
2019-05-10T23:53:12.374Z,97897.70
2019-05-10T23:55:46.204Z,97895.75
2019-05-10T23:58:19.957Z,97902.48
